Columbia — WDD6400 — position and weather

sailwx.info

Track history (hours):
 
Tides and Currents Weather Stations Pressure Air Temp Water Temp Dewpoint Dewpoint Depression Visibility Wind Speed Wind Dir Waves Ship Positions

Columbia

Owner: OSG Ship Management Inc., Tampa, FL. More information available from US FCC via Universal Licensing System and Coast Guard Vessel Documentation Center.

Last reported at 2016-Dec-03 19:33 UTC. Time now 2016-Dec-04 18:19 UTC.
Position N 27°45' W 082°32'.

Length 194 m; draft 5.9 m.

Type: Towing. MMSI: 367172440.

Date/timePositionNaut miles runAvg speedWind from/ knotsBaromVisibWave heightAir tempDewpointWater temp
2016-Dec-03 19:33N 27°45' W 082°32'8 8.4
2016-Dec-03 18:34N 27°52' W 082°27'3 3.1
2016-Dec-03 17:32N 27°55' W 082°27'0 0.0
2016-Dec-03 16:32N 27°55' W 082°27'0 0.0
2016-Dec-03 15:32N 27°55' W 082°27'0 0.0
2016-Dec-03 14:32N 27°55' W 082°27'0 0.0
2016-Dec-03 13:33N 27°55' W 082°27'0 0.0
2016-Dec-03 12:33N 27°55' W 082°27'0 0.0
2016-Dec-03 11:33N 27°55' W 082°27'0 0.0
2016-Dec-03 10:33N 27°55' W 082°27'0 0.0
2016-Dec-03 09:33N 27°55' W 082°27'0 0.0
2016-Dec-03 08:33N 27°55' W 082°27'0 0.0
2016-Dec-03 07:33N 27°55' W 082°27'0 0.0
2016-Dec-03 06:33N 27°55' W 082°27'0 0.0
2016-Dec-03 05:33N 27°55' W 082°27'0 0.0
2016-Dec-03 04:33N 27°55' W 082°27'0 0.0
2016-Dec-03 03:33N 27°55' W 082°27'0 0.0
2016-Dec-03 02:33N 27°55' W 082°27'0 0.0
2016-Dec-03 01:33N 27°55' W 082°27'0 0.0
2016-Dec-03 00:33N 27°55' W 082°27'0 0.4
2016-Dec-02 23:33N 27°55' W 082°27'1 0.6
2016-Dec-02 22:33N 27°56' W 082°27'1 1.3
2016-Dec-02 21:33N 27°55' W 082°26'0 0.0
2016-Dec-02 20:33N 27°55' W 082°26'0 0.0
2016-Dec-02 19:33N 27°55' W 082°26'0 0.0
2016-Dec-02 18:33N 27°55' W 082°26'0 0.0
2016-Dec-02 17:33N 27°55' W 082°26'0 0.0
2016-Dec-02 16:33N 27°55' W 082°26'0 0.0
2016-Dec-02 15:33N 27°55' W 082°26'0 0.0
2016-Dec-02 14:33N 27°55' W 082°26'0 0.0
2016-Dec-02 13:33N 27°55' W 082°26'0 0.0
2016-Dec-02 12:33N 27°55' W 082°26'0 0.0
2016-Dec-02 11:33N 27°55' W 082°26'0 0.0
2016-Dec-02 10:33N 27°55' W 082°26'0 0.0
2016-Dec-02 09:33N 27°55' W 082°26'0 0.0
2016-Dec-02 08:33N 27°55' W 082°26'0 0.0
2016-Dec-02 07:33N 27°55' W 082°26'0 0.0
2016-Dec-02 06:33N 27°55' W 082°26'0 0.0
2016-Dec-02 05:33N 27°55' W 082°26'0 0.0
2016-Dec-02 04:33N 27°55' W 082°26'0 0.0
2016-Dec-02 03:33N 27°55' W 082°26'0 0.0
2016-Dec-02 02:33N 27°55' W 082°26'1 0.8
2016-Dec-02 01:33N 27°55' W 082°27'1 1.1
2016-Dec-02 00:33N 27°56' W 082°27'1 1.3
2016-Dec-01 23:33N 27°55' W 082°27'7 7.0
2016-Dec-01 22:33N 27°48' W 082°29'6 5.8
2016-Dec-01 21:33N 27°43' W 082°32'7 6.8
2016-Dec-01 20:29N 27°38' W 082°38'  
2016-Nov-27 11:33N 29°59' W 093°20'7 6.7
2016-Nov-27 10:33N 30°06' W 093°20'5 4.7
2016-Nov-27 09:33N 30°10' W 093°19'0 0.2
2016-Nov-27 08:34N 30°11' W 093°19'0 0.0
2016-Nov-27 07:34N 30°11' W 093°19'0 0.0
2016-Nov-27 06:34N 30°11' W 093°19'0 0.0
2016-Nov-27 05:33N 30°11' W 093°19'0 0.0
2016-Nov-27 04:34N 30°11' W 093°19'0 0.0
2016-Nov-27 03:34N 30°11' W 093°19'0 0.0
2016-Nov-27 02:34N 30°11' W 093°19'0 0.0
2016-Nov-27 01:33N 30°11' W 093°19'0 0.0
2016-Nov-27 00:34N 30°11' W 093°19'0 0.0
2016-Nov-26 23:34N 30°11' W 093°19'0 0.0
2016-Nov-26 22:34N 30°11' W 093°19'0 0.0
2016-Nov-26 21:33N 30°11' W 093°19'0 0.0
2016-Nov-26 20:33N 30°11' W 093°19'0 0.0
2016-Nov-26 19:34N 30°11' W 093°19'0 0.0
2016-Nov-26 18:34N 30°11' W 093°19'0 0.0
2016-Nov-26 17:34N 30°11' W 093°19'0 0.0
2016-Nov-26 16:34N 30°11' W 093°19'0 0.0
2016-Nov-26 15:34N 30°11' W 093°19'0 0.0
2016-Nov-26 14:34N 30°11' W 093°19'0 0.0
2016-Nov-26 13:34N 30°11' W 093°19'0 0.0
2016-Nov-26 12:33N 30°11' W 093°19'0 0.0
2016-Nov-26 11:34N 30°11' W 093°19'0 0.0
2016-Nov-26 10:34N 30°11' W 093°19'0 0.0
2016-Nov-26 09:34N 30°11' W 093°19'0 0.0
2016-Nov-26 08:34N 30°11' W 093°19'0 0.0
2016-Nov-26 07:34N 30°11' W 093°19'0 0.0
2016-Nov-26 06:34N 30°11' W 093°19'0 0.0
2016-Nov-26 05:34N 30°11' W 093°19'0 0.0
2016-Nov-26 04:34N 30°11' W 093°19'0 0.0
2016-Nov-26 03:33N 30°11' W 093°19'0 0.0
2016-Nov-26 02:34N 30°11' W 093°19'0 0.0
2016-Nov-26 01:33N 30°11' W 093°19'0 0.0
2016-Nov-26 00:34N 30°11' W 093°19'0 0.0
2016-Nov-25 23:33N 30°11' W 093°19'0 0.0
2016-Nov-25 22:33N 30°11' W 093°19'0 0.0
2016-Nov-25 21:34N 30°11' W 093°19'0 0.0
2016-Nov-25 20:33N 30°11' W 093°19'0 0.0
2016-Nov-25 19:33N 30°11' W 093°19'0 0.0
2016-Nov-25 18:33N 30°11' W 093°19'0 0.0
2016-Nov-25 17:34N 30°11' W 093°19'0 0.0
2016-Nov-25 16:33N 30°11' W 093°19'0 0.0
2016-Nov-25 15:34N 30°11' W 093°19'0 0.0
2016-Nov-25 14:34N 30°11' W 093°19'0 0.0
2016-Nov-25 13:34N 30°11' W 093°19'0 0.0
2016-Nov-25 12:34N 30°11' W 093°19'0 0.0
2016-Nov-25 11:34N 30°11' W 093°19'7 7.1
2016-Nov-25 10:33N 30°04' W 093°20'9 8.9
2016-Nov-25 09:34N 29°55' W 093°20'9 9.3
2016-Nov-25 08:33N 29°45' W 093°21'7 7.2
2016-Nov-25 07:34N 29°39' W 093°18'0 0.0
2016-Nov-25 06:31N 29°39' W 093°18'0 0.0
2016-Nov-25 05:28N 29°39' W 093°18'5 4.9
2016-Nov-25 04:31N 29°34' W 093°16'  
Track history (hours):
 
Tides and Currents Weather Stations Pressure Air Temp Water Temp Dewpoint Dewpoint Depression Visibility Wind Speed Wind Dir Waves Ship Positions

Columbia

Owner: OSG Ship Management Inc., Tampa, FL. More information available from US FCC via Universal Licensing System and Coast Guard Vessel Documentation Center.

Last reported at 2016-Dec-03 19:33 UTC. Time now 2016-Dec-04 18:19 UTC.
Position N 27°45' W 082°32'.

Length 194 m; draft 5.9 m.

Type: Towing. MMSI: 367172440.

Date/timePositionNaut miles runAvg speedWind from/ knotsBaromVisibWave heightAir tempDewpointWater temp
2016-Dec-03 19:33N 27°45' W 082°32'8 8.4
2016-Dec-03 18:34N 27°52' W 082°27'3 3.1
2016-Dec-03 17:32N 27°55' W 082°27'0 0.0
2016-Dec-03 16:32N 27°55' W 082°27'0 0.0
2016-Dec-03 15:32N 27°55' W 082°27'0 0.0
2016-Dec-03 14:32N 27°55' W 082°27'0 0.0
2016-Dec-03 13:33N 27°55' W 082°27'0 0.0
2016-Dec-03 12:33N 27°55' W 082°27'0 0.0
2016-Dec-03 11:33N 27°55' W 082°27'0 0.0
2016-Dec-03 10:33N 27°55' W 082°27'0 0.0
2016-Dec-03 09:33N 27°55' W 082°27'0 0.0
2016-Dec-03 08:33N 27°55' W 082°27'0 0.0
2016-Dec-03 07:33N 27°55' W 082°27'0 0.0
2016-Dec-03 06:33N 27°55' W 082°27'0 0.0
2016-Dec-03 05:33N 27°55' W 082°27'0 0.0
2016-Dec-03 04:33N 27°55' W 082°27'0 0.0
2016-Dec-03 03:33N 27°55' W 082°27'0 0.0
2016-Dec-03 02:33N 27°55' W 082°27'0 0.0
2016-Dec-03 01:33N 27°55' W 082°27'0 0.0
2016-Dec-03 00:33N 27°55' W 082°27'0 0.4
2016-Dec-02 23:33N 27°55' W 082°27'1 0.6
2016-Dec-02 22:33N 27°56' W 082°27'1 1.3
2016-Dec-02 21:33N 27°55' W 082°26'0 0.0
2016-Dec-02 20:33N 27°55' W 082°26'0 0.0
2016-Dec-02 19:33N 27°55' W 082°26'0 0.0
2016-Dec-02 18:33N 27°55' W 082°26'0 0.0
2016-Dec-02 17:33N 27°55' W 082°26'0 0.0
2016-Dec-02 16:33N 27°55' W 082°26'0 0.0
2016-Dec-02 15:33N 27°55' W 082°26'0 0.0
2016-Dec-02 14:33N 27°55' W 082°26'0 0.0
2016-Dec-02 13:33N 27°55' W 082°26'0 0.0
2016-Dec-02 12:33N 27°55' W 082°26'0 0.0
2016-Dec-02 11:33N 27°55' W 082°26'0 0.0
2016-Dec-02 10:33N 27°55' W 082°26'0 0.0
2016-Dec-02 09:33N 27°55' W 082°26'0 0.0
2016-Dec-02 08:33N 27°55' W 082°26'0 0.0
2016-Dec-02 07:33N 27°55' W 082°26'0 0.0
2016-Dec-02 06:33N 27°55' W 082°26'0 0.0
2016-Dec-02 05:33N 27°55' W 082°26'0 0.0
2016-Dec-02 04:33N 27°55' W 082°26'0 0.0
2016-Dec-02 03:33N 27°55' W 082°26'0 0.0
2016-Dec-02 02:33N 27°55' W 082°26'1 0.8
2016-Dec-02 01:33N 27°55' W 082°27'1 1.1
2016-Dec-02 00:33N 27°56' W 082°27'1 1.3
2016-Dec-01 23:33N 27°55' W 082°27'7 7.0
2016-Dec-01 22:33N 27°48' W 082°29'6 5.8
2016-Dec-01 21:33N 27°43' W 082°32'7 6.8
2016-Dec-01 20:29N 27°38' W 082°38'  
2016-Nov-27 11:33N 29°59' W 093°20'7 6.7
2016-Nov-27 10:33N 30°06' W 093°20'5 4.7
2016-Nov-27 09:33N 30°10' W 093°19'0 0.2
2016-Nov-27 08:34N 30°11' W 093°19'0 0.0
2016-Nov-27 07:34N 30°11' W 093°19'0 0.0
2016-Nov-27 06:34N 30°11' W 093°19'0 0.0
2016-Nov-27 05:33N 30°11' W 093°19'0 0.0
2016-Nov-27 04:34N 30°11' W 093°19'0 0.0
2016-Nov-27 03:34N 30°11' W 093°19'0 0.0
2016-Nov-27 02:34N 30°11' W 093°19'0 0.0
2016-Nov-27 01:33N 30°11' W 093°19'0 0.0
2016-Nov-27 00:34N 30°11' W 093°19'0 0.0
2016-Nov-26 23:34N 30°11' W 093°19'0 0.0
2016-Nov-26 22:34N 30°11' W 093°19'0 0.0
2016-Nov-26 21:33N 30°11' W 093°19'0 0.0
2016-Nov-26 20:33N 30°11' W 093°19'0 0.0
2016-Nov-26 19:34N 30°11' W 093°19'0 0.0
2016-Nov-26 18:34N 30°11' W 093°19'0 0.0
2016-Nov-26 17:34N 30°11' W 093°19'0 0.0
2016-Nov-26 16:34N 30°11' W 093°19'0 0.0
2016-Nov-26 15:34N 30°11' W 093°19'0 0.0
2016-Nov-26 14:34N 30°11' W 093°19'0 0.0
2016-Nov-26 13:34N 30°11' W 093°19'0 0.0
2016-Nov-26 12:33N 30°11' W 093°19'0 0.0
2016-Nov-26 11:34N 30°11' W 093°19'0 0.0
2016-Nov-26 10:34N 30°11' W 093°19'0 0.0
2016-Nov-26 09:34N 30°11' W 093°19'0 0.0
2016-Nov-26 08:34N 30°11' W 093°19'0 0.0
2016-Nov-26 07:34N 30°11' W 093°19'0 0.0
2016-Nov-26 06:34N 30°11' W 093°19'0 0.0
2016-Nov-26 05:34N 30°11' W 093°19'0 0.0
2016-Nov-26 04:34N 30°11' W 093°19'0 0.0
2016-Nov-26 03:33N 30°11' W 093°19'0 0.0
2016-Nov-26 02:34N 30°11' W 093°19'0 0.0
2016-Nov-26 01:33N 30°11' W 093°19'0 0.0
2016-Nov-26 00:34N 30°11' W 093°19'0 0.0
2016-Nov-25 23:33N 30°11' W 093°19'0 0.0
2016-Nov-25 22:33N 30°11' W 093°19'0 0.0
2016-Nov-25 21:34N 30°11' W 093°19'0 0.0
2016-Nov-25 20:33N 30°11' W 093°19'0 0.0
2016-Nov-25 19:33N 30°11' W 093°19'0 0.0
2016-Nov-25 18:33N 30°11' W 093°19'0 0.0
2016-Nov-25 17:34N 30°11' W 093°19'0 0.0
2016-Nov-25 16:33N 30°11' W 093°19'0 0.0
2016-Nov-25 15:34N 30°11' W 093°19'0 0.0
2016-Nov-25 14:34N 30°11' W 093°19'0 0.0
2016-Nov-25 13:34N 30°11' W 093°19'0 0.0
2016-Nov-25 12:34N 30°11' W 093°19'0 0.0
2016-Nov-25 11:34N 30°11' W 093°19'7 7.1
2016-Nov-25 10:33N 30°04' W 093°20'9 8.9
2016-Nov-25 09:34N 29°55' W 093°20'9 9.3
2016-Nov-25 08:33N 29°45' W 093°21'7 7.2
2016-Nov-25 07:34N 29°39' W 093°18'0 0.0
2016-Nov-25 06:31N 29°39' W 093°18'0 0.0
2016-Nov-25 05:28N 29°39' W 093°18'5 4.9
2016-Nov-25 04:31N 29°34' W 093°16'  

Dump ship's entire track history